• vieta
  • image
  • image
  • image

Šiandien

Ketvirtadienis, 05 Kovas 2015

Orų prognozė

Šiauliai 3 °C
   

Orų prognozė aviacijai


Warning: fopen(http://aviationweather.gov/adds/tafs/?station_ids=EYSA&std_trans=standard&submit_taf=Get+TAFs): failed to open stream: Connection timed out in /home/siauliaiai/domains/siauliai-airport.com/public_html/libraries/joomla/filesystem/file.php on line 240
[source: ADDS]
METAR
EYSA 051420Z 03007KT 350V060 9999 FEW029 BKN040 03/M01 Q1026 R32R/29//95 R32L/29//95 =
TAF
SR / SS: 05:07 / 16:11 UTC (EYSA 2015-03-05)

Lankytojai

Mes turime 9 svečius online

tic logo lt